Time;durP1;ratioP1;P1;durP2;ratioP2;P2;SDS_P1;SDS_P2;PMS_P1;PMS_P2;Temp;Humidity;BMP_temperature;BMP_pressure;BME280_temperature;BME280_humidity;BME280_pressure;Samples;Min_cycle;Max_cycle;Signal;HPM_P1;HPM_P2
2020/12/22 00:00:13;;;;;;;2.95;1.83;;;9.80;91.00;;;;;;4975051;28;20030;-52
2020/12/22 00:02:43;;;;;;;1.88;1.70;;;9.80;91.10;;;;;;4974836;28;20095;-52
2020/12/22 00:05:09;;;;;;;2.90;2.17;;;9.80;91.20;;;;;;4975534;28;20030;-52
2020/12/22 00:07:35;;;;;;;1.83;1.55;;;9.80;91.00;;;;;;4973737;28;20432;-52
2020/12/22 00:10:01;;;;;;;1.80;1.65;;;9.80;90.90;;;;;;4967003;28;20065;-52
2020/12/22 00:12:28;;;;;;;2.33;0.95;;;9.80;91.00;;;;;;4975290;28;20037;-52
2020/12/22 00:14:54;;;;;;;2.30;1.67;;;9.80;91.30;;;;;;4975665;28;20447;-52
2020/12/22 00:17:20;;;;;;;1.95;1.58;;;9.80;91.10;;;;;;4974656;28;20058;-52
2020/12/22 00:19:46;;;;;;;2.35;1.35;;;9.80;91.10;;;;;;4975344;28;20065;-52
2020/12/22 00:22:12;;;;;;;1.50;1.20;;;9.80;91.10;;;;;;4969659;28;20078;-52
2020/12/22 00:24:37;;;;;;;3.03;2.17;;;9.80;91.10;;;;;;4971017;28;20126;-52
2020/12/22 00:27:03;;;;;;;1.98;1.55;;;9.80;91.20;;;;;;4974385;28;20109;-52
2020/12/22 00:29:29;;;;;;;1.92;1.48;;;9.80;91.60;;;;;;4975017;28;20027;-52
2020/12/22 00:32:00;;;;;;;3.83;1.85;;;9.80;91.30;;;;;;4973975;28;20023;-52
2020/12/22 00:34:29;;;;;;;1.52;1.38;;;9.80;91.10;;;;;;4975232;28;20046;-52
2020/12/22 00:36:55;;;;;;;1.13;1.13;;;9.80;91.30;;;;;;4974341;28;20453;-52
2020/12/22 00:39:21;;;;;;;0.30;0.30;;;9.80;91.30;;;;;;4974260;28;20045;-52
2020/12/22 00:41:54;;;;;;;4.78;1.90;;;9.80;91.10;;;;;;4978504;28;20019;-51
2020/12/22 00:44:20;;;;;;;2.40;1.65;;;9.80;91.40;;;;;;4979361;28;20023;-52
2020/12/22 00:46:46;;;;;;;1.27;1.17;;;9.80;91.30;;;;;;4978346;28;20077;-52
2020/12/22 00:49:11;;;;;;;2.08;0.93;;;9.80;91.20;;;;;;4978862;28;20022;-52
2020/12/22 00:51:37;;;;;;;2.33;1.35;;;9.80;91.30;;;;;;4976830;28;20023;-51
2020/12/22 00:54:03;;;;;;;1.55;1.08;;;9.80;91.40;;;;;;4979006;28;20050;-52
2020/12/22 00:56:28;;;;;;;2.95;1.70;;;9.80;91.40;;;;;;4977291;28;20075;-51
2020/12/22 00:58:54;;;;;;;0.82;0.82;;;9.80;91.30;;;;;;4977350;28;20035;-52
2020/12/22 01:01:20;;;;;;;1.23;1.13;;;9.80;91.30;;;;;;4977247;28;20082;-51
2020/12/22 01:03:46;;;;;;;0.63;0.63;;;9.80;91.50;;;;;;4978620;28;20054;-52
2020/12/22 01:06:11;;;;;;;1.70;1.20;;;9.80;91.20;;;;;;4973326;28;20040;-52
2020/12/22 01:08:37;;;;;;;1.60;1.40;;;9.80;91.40;;;;;;4976989;28;20117;-52
2020/12/22 01:11:03;;;;;;;2.45;1.70;;;9.80;91.50;;;;;;4976148;28;20480;-52
2020/12/22 01:13:28;;;;;;;2.50;1.50;;;9.80;91.40;;;;;;4978840;28;20499;-52
2020/12/22 01:15:54;;;;;;;2.58;1.80;;;9.80;91.40;;;;;;4978761;28;20449;-52
2020/12/22 01:18:20;;;;;;;1.63;1.52;;;9.80;91.50;;;;;;4977065;28;20045;-51
2020/12/22 01:20:48;;;;;;;2.22;1.40;;;9.80;91.50;;;;;;4977765;28;20404;-52
2020/12/22 01:23:14;;;;;;;2.85;1.70;;;9.80;91.40;;;;;;4978329;28;20088;-52
2020/12/22 01:25:40;;;;;;;2.22;1.60;;;9.80;91.40;;;;;;4977352;28;20035;-52
2020/12/22 01:28:06;;;;;;;1.35;1.15;;;9.80;91.40;;;;;;4976933;28;20050;-52
2020/12/22 01:30:32;;;;;;;0.60;0.60;;;9.80;91.50;;;;;;4966456;28;20035;-52
2020/12/22 01:32:57;;;;;;;1.50;1.20;;;9.80;91.30;;;;;;4966512;28;20035;-52
2020/12/22 01:35:23;;;;;;;2.22;1.65;;;9.80;91.60;;;;;;4978016;28;20349;-52
2020/12/22 01:37:48;;;;;;;2.72;2.08;;;9.80;91.40;;;;;;4977246;28;20062;-52
2020/12/22 01:40:14;;;;;;;2.58;1.73;;;9.80;91.40;;;;;;4977642;28;20492;-51
2020/12/22 01:42:43;;;;;;;2.05;1.48;;;9.80;91.60;;;;;;4977282;28;20349;-52
2020/12/22 01:45:11;;;;;;;1.70;1.02;;;9.80;91.30;;;;;;4977745;28;20018;-52
2020/12/22 01:47:44;;;;;;;1.02;0.88;;;9.80;91.40;;;;;;4977427;28;20065;-52
2020/12/22 01:50:12;;;;;;;1.85;1.73;;;9.80;91.60;;;;;;4977578;28;20045;-52
2020/12/22 01:52:39;;;;;;;1.92;1.20;;;9.80;91.60;;;;;;4976395;28;20360;-52
2020/12/22 01:55:04;;;;;;;1.33;1.23;;;9.90;91.50;;;;;;4962185;28;20027;-52
2020/12/22 01:57:30;;;;;;;1.52;1.30;;;9.80;91.60;;;;;;4977191;28;20373;-52
2020/12/22 01:59:56;;;;;;;1.92;1.60;;;9.90;91.60;;;;;;4971313;28;20081;-52
2020/12/22 02:02:23;;;;;;;1.90;1.40;;;9.90;91.60;;;;;;4977513;28;20023;-52
2020/12/22 02:04:49;;;;;;;1.27;1.02;;;9.80;91.60;;;;;;4972314;28;20031;-52
2020/12/22 02:07:15;;;;;;;0.40;0.40;;;9.80;91.70;;;;;;4975414;28;20049;-52
2020/12/22 02:09:43;;;;;;;0.65;0.65;;;9.80;91.50;;;;;;4977532;28;20039;-52
2020/12/22 02:12:09;;;;;;;2.70;2.08;;;9.80;91.40;;;;;;4967134;28;20039;-52
2020/12/22 02:14:34;;;;;;;1.70;1.40;;;9.90;91.60;;;;;;4976587;28;20330;-52
2020/12/22 02:17:00;;;;;;;2.50;1.67;;;9.80;91.60;;;;;;4965139;28;20045;-52
2020/12/22 02:19:26;;;;;;;2.03;1.48;;;9.90;91.50;;;;;;4977236;28;20030;-52
2020/12/22 02:21:52;;;;;;;1.98;1.58;;;9.90;91.50;;;;;;4977357;28;20066;-52
2020/12/22 02:24:19;;;;;;;1.17;1.05;;;9.90;91.70;;;;;;4977564;28;20046;-52
2020/12/22 02:26:44;;;;;;;2.42;1.50;;;9.90;91.90;;;;;;4976366;28;20019;-51
2020/12/22 02:29:10;;;;;;;2.13;1.70;;;9.90;91.40;;;;;;4977106;28;20038;-52
2020/12/22 02:31:36;;;;;;;3.22;1.90;;;9.90;91.60;;;;;;4975160;28;20029;-52
2020/12/22 02:34:01;;;;;;;1.90;1.55;;;9.90;91.60;;;;;;4977027;28;20082;-52
2020/12/22 02:36:27;;;;;;;3.13;2.40;;;9.90;91.50;;;;;;4975490;28;20042;-52
2020/12/22 02:38:53;;;;;;;3.00;1.90;;;9.90;91.50;;;;;;4976734;28;20524;-52
2020/12/22 02:41:19;;;;;;;2.03;1.65;;;9.90;91.40;;;;;;4976867;28;20018;-52
2020/12/22 02:43:44;;;;;;;3.28;2.03;;;9.90;91.60;;;;;;4976359;28;20035;-52
2020/12/22 02:46:10;;;;;;;1.48;1.38;;;9.90;91.50;;;;;;4976673;28;20034;-52
2020/12/22 02:48:36;;;;;;;2.22;1.75;;;9.90;91.50;;;;;;4975099;28;20054;-51
2020/12/22 02:51:03;;;;;;;2.03;1.70;;;9.90;91.30;;;;;;4975873;28;20027;-52
2020/12/22 02:53:28;;;;;;;1.70;1.60;;;9.90;91.40;;;;;;4976664;28;20019;-52
2020/12/22 02:55:54;;;;;;;2.20;1.58;;;9.90;91.70;;;;;;4969837;28;20030;-52
2020/12/22 02:58:20;;;;;;;1.60;1.50;;;9.90;91.40;;;;;;4975881;28;20041;-52
2020/12/22 03:00:46;;;;;;;2.00;1.67;;;9.90;91.40;;;;;;4976590;28;20038;-52
2020/12/22 03:03:12;;;;;;;1.88;1.48;;;9.90;91.50;;;;;;4972834;28;20074;-52
2020/12/22 03:05:37;;;;;;;4.38;2.20;;;10.00;91.80;;;;;;4969872;28;20026;-52
2020/12/22 03:08:07;;;;;;;2.55;2.05;;;10.00;91.40;;;;;;4970833;28;20039;-52
2020/12/22 03:10:33;;;;;;;2.47;1.38;;;9.90;91.50;;;;;;4972270;28;20109;-52
2020/12/22 03:12:59;;;;;;;1.35;1.23;;;9.90;91.50;;;;;;4964396;28;20524;-52
2020/12/22 03:15:24;;;;;;;3.58;1.58;;;10.00;91.50;;;;;;4976481;28;20015;-52
2020/12/22 03:17:50;;;;;;;1.20;1.10;;;9.90;91.50;;;;;;4975324;28;20031;-52
2020/12/22 03:20:16;;;;;;;2.47;1.60;;;10.00;91.40;;;;;;4965123;28;20406;-52
2020/12/22 03:22:42;;;;;;;3.72;1.77;;;10.00;91.40;;;;;;4961968;28;20483;-51
2020/12/22 03:25:12;;;;;;;1.88;1.45;;;10.00;91.30;;;;;;4970655;28;20034;-52
2020/12/22 03:27:38;;;;;;;1.43;1.33;;;9.90;91.60;;;;;;4964295;28;20034;-52
2020/12/22 03:30:11;;;;;;;1.63;1.48;;;9.90;91.60;;;;;;4968346;28;20274;-52
2020/12/22 03:32:38;;;;;;;2.25;1.90;;;9.90;91.60;;;;;;4971411;28;20041;-52
2020/12/22 03:35:05;;;;;;;0.90;0.88;;;9.90;91.60;;;;;;4958655;28;20315;-52
2020/12/22 03:37:30;;;;;;;1.00;0.95;;;9.90;91.60;;;;;;4968531;28;20034;-52
2020/12/22 03:40:00;;;;;;;1.65;1.50;;;9.90;91.60;;;;;;4970540;28;20034;-52
2020/12/22 03:42:26;;;;;;;2.13;1.90;;;10.00;91.80;;;;;;4970768;28;20121;-52
2020/12/22 03:44:51;;;;;;;3.42;2.17;;;9.90;91.70;;;;;;4964009;28;20030;-52
2020/12/22 03:47:17;;;;;;;5.93;2.08;;;10.00;91.60;;;;;;4974713;28;20113;-52
2020/12/22 03:49:43;;;;;;;1.98;1.80;;;9.90;91.70;;;;;;4973053;28;20535;-52
2020/12/22 03:52:08;;;;;;;2.00;1.75;;;10.00;91.90;;;;;;4968274;28;20054;-52
2020/12/22 03:54:35;;;;;;;1.42;1.17;;;9.90;91.70;;;;;;4971978;28;20364;-52
2020/12/22 03:57:00;;;;;;;1.48;1.38;;;10.00;91.60;;;;;;4974325;28;20088;-52
2020/12/22 03:59:27;;;;;;;1.13;1.02;;;10.00;91.80;;;;;;4973916;28;20034;-52
2020/12/22 04:01:52;;;;;;;0.45;0.45;;;9.90;91.50;;;;;;4963646;28;20057;-52
2020/12/22 04:04:20;;;;;;;1.88;1.48;;;10.00;91.50;;;;;;4971433;28;20043;-51
2020/12/22 04:06:46;;;;;;;1.08;0.80;;;10.00;91.80;;;;;;4972382;28;20027;-52
2020/12/22 04:09:11;;;;;;;1.17;1.05;;;10.00;91.80;;;;;;4961600;28;20035;-52
2020/12/22 04:11:37;;;;;;;1.45;0.98;;;9.90;91.60;;;;;;4975083;28;20519;-52
2020/12/22 04:14:02;;;;;;;2.35;1.10;;;10.00;91.70;;;;;;4975483;28;20038;-52
2020/12/22 04:16:28;;;;;;;1.33;0.90;;;10.00;92.00;;;;;;4974339;28;20085;-52
2020/12/22 04:18:54;;;;;;;0.82;0.82;;;10.00;91.90;;;;;;4974457;28;20499;-52
2020/12/22 04:21:19;;;;;;;1.85;1.30;;;10.00;91.90;;;;;;4975508;28;20015;-52
2020/12/22 04:23:45;;;;;;;0.63;0.63;;;10.00;91.80;;;;;;4962107;28;20467;-51
2020/12/22 04:26:10;;;;;;;0.77;0.77;;;10.00;91.90;;;;;;4968362;28;20035;-52
2020/12/22 04:28:36;;;;;;;1.08;0.63;;;10.00;91.90;;;;;;4974452;28;20113;-52
2020/12/22 04:31:02;;;;;;;0.90;0.90;;;10.00;91.80;;;;;;4974292;28;20118;-52
2020/12/22 04:33:27;;;;;;;1.33;0.65;;;10.00;91.70;;;;;;4975363;28;20061;-52
2020/12/22 04:35:53;;;;;;;1.15;1.10;;;10.00;91.80;;;;;;4966292;28;20057;-52
2020/12/22 04:38:18;;;;;;;1.27;1.20;;;10.00;91.90;;;;;;4962762;28;20042;-52
2020/12/22 04:40:44;;;;;;;1.27;1.02;;;10.00;91.80;;;;;;4959379;28;20444;-52
2020/12/22 04:43:10;;;;;;;1.13;1.02;;;10.00;91.70;;;;;;4974377;28;20405;-51
2020/12/22 04:45:36;;;;;;;1.23;0.75;;;10.00;91.80;;;;;;4974211;28;20101;-52
2020/12/22 04:48:02;;;;;;;1.17;0.90;;;10.00;91.80;;;;;;4963056;28;20039;-52
2020/12/22 04:50:28;;;;;;;1.27;1.17;;;10.00;91.60;;;;;;4963201;28;20397;-52
2020/12/22 04:52:54;;;;;;;1.25;1.08;;;10.00;91.80;;;;;;4958105;28;20028;-52
2020/12/22 04:55:21;;;;;;;0.82;0.82;;;10.00;91.80;;;;;;4973677;28;20031;-52
2020/12/22 04:57:51;;;;;;;1.33;1.00;;;10.00;91.80;;;;;;4971839;28;20035;-52
2020/12/22 05:00:17;;;;;;;;;;;10.00;91.90;;;;;;4970459;28;20045;-52
2020/12/22 05:02:43;;;;;;;1.27;0.93;;;10.00;91.70;;;;;;4974384;28;19929;-52
2020/12/22 05:05:10;;;;;;;1.15;1.05;;;10.00;91.90;;;;;;4968809;28;20357;-51
2020/12/22 05:07:37;;;;;;;0.63;0.63;;;10.00;91.80;;;;;;4972640;28;20074;-51
2020/12/22 05:10:11;;;;;;;0.63;0.55;;;10.00;92.00;;;;;;4972458;28;20039;-52
2020/12/22 05:12:41;;;;;;;1.52;1.13;;;10.00;91.90;;;;;;4970150;28;20034;-52
2020/12/22 05:15:08;;;;;;;0.95;0.85;;;10.00;91.70;;;;;;4955948;28;20105;-52
2020/12/22 05:17:45;;;;;;;0.40;0.40;;;10.00;92.10;;;;;;4962765;28;20043;-52
2020/12/22 05:20:14;;;;;;;4.70;0.80;;;10.00;91.80;;;;;;4970980;28;20110;-52
2020/12/22 05:22:44;;;;;;;0.88;0.70;;;10.00;92.00;;;;;;4970669;28;20027;-52
2020/12/22 05:25:10;;;;;;;1.05;0.95;;;10.00;91.80;;;;;;4964133;28;20073;-52
2020/12/22 05:27:36;;;;;;;0.75;0.75;;;10.00;91.70;;;;;;4974777;28;20034;-52
2020/12/22 05:30:04;;;;;;;0.50;0.50;;;10.00;91.90;;;;;;4967411;28;20043;-52
2020/12/22 05:32:31;;;;;;;0.85;0.70;;;10.00;91.90;;;;;;4972677;28;20050;-52
2020/12/22 05:34:57;;;;;;;0.80;0.80;;;10.10;91.60;;;;;;4955994;28;631764;-52
2020/12/22 05:37:27;;;;;;;0.60;0.43;;;10.00;91.70;;;;;;4977392;28;20027;-53
2020/12/22 05:39:53;;;;;;;;;;;10.10;91.70;;;;;;4977563;28;20480;-52
2020/12/22 05:42:19;;;;;;;0.40;0.40;;;10.10;91.70;;;;;;4973485;28;19917;-52
2020/12/22 05:44:50;;;;;;;0.68;0.68;;;10.10;91.70;;;;;;4975573;28;20070;-52
2020/12/22 05:47:17;;;;;;;0.88;0.65;;;10.10;91.60;;;;;;4977445;28;20023;-52
2020/12/22 05:49:56;;;;;;;0.50;0.50;;;10.10;91.70;;;;;;4977118;28;20033;-52
2020/12/22 05:52:27;;;;;;;0.68;0.68;;;10.10;91.60;;;;;;4977543;28;20067;-52
2020/12/22 05:54:55;;;;;;;1.50;0.80;;;10.10;91.80;;;;;;4977182;28;20102;-52
2020/12/22 05:57:22;;;;;;;0.70;0.68;;;10.10;91.70;;;;;;4972223;28;20461;-52
2020/12/22 05:59:49;;;;;;;0.65;0.45;;;10.10;91.70;;;;;;4969845;28;20050;-52
2020/12/22 06:02:28;;;;;;;0.70;0.70;;;10.10;91.70;;;;;;4976361;28;20042;-53
2020/12/22 06:04:59;;;;;;;0.40;0.40;;;10.10;91.50;;;;;;4967803;28;20457;-53
2020/12/22 06:07:25;;;;;;;0.77;0.60;;;10.10;91.80;;;;;;4975917;28;20037;-53
2020/12/22 06:09:51;;;;;;;1.08;0.98;;;10.10;91.50;;;;;;4977104;28;20500;-53
2020/12/22 06:12:19;;;;;;;0.70;0.70;;;10.10;91.90;;;;;;4973162;28;20142;-52
2020/12/22 06:14:50;;;;;;;0.50;0.50;;;10.10;91.70;;;;;;4976435;28;20062;-53
2020/12/22 06:17:16;;;;;;;0.40;0.40;;;10.10;91.60;;;;;;4970501;28;20531;-52
2020/12/22 06:19:44;;;;;;;2.97;0.45;;;10.10;91.80;;;;;;4967385;28;20063;-52
2020/12/22 06:22:12;;;;;;;0.85;0.73;;;10.10;91.60;;;;;;4967291;28;20544;-52
2020/12/22 06:24:38;;;;;;;0.70;0.70;;;10.10;91.60;;;;;;4971796;28;20038;-52
2020/12/22 06:27:06;;;;;;;0.52;0.52;;;10.10;91.90;;;;;;4966648;28;20022;-52
2020/12/22 06:29:33;;;;;;;5.50;0.50;;;10.10;91.60;;;;;;4965220;28;20023;-52
2020/12/22 06:32:16;;;;;;;0.60;0.60;;;10.10;91.70;;;;;;4970806;28;20042;-52
2020/12/22 06:34:43;;;;;;;0.38;0.38;;;10.10;91.80;;;;;;4967994;28;20086;-53
2020/12/22 06:37:10;;;;;;;0.70;0.70;;;10.10;91.70;;;;;;4971507;28;20066;-53
2020/12/22 06:39:49;;;;;;;0.88;0.88;;;10.10;91.80;;;;;;4976679;28;20027;-52
2020/12/22 06:42:30;;;;;;;1.85;0.70;;;10.10;91.60;;;;;;4968542;28;20078;-53
2020/12/22 06:45:16;;;;;;;0.60;0.60;;;10.10;91.80;;;;;;4963740;28;20472;-52
2020/12/22 06:47:42;;;;;;;0.60;0.60;;;10.20;92.00;;;;;;4964782;28;20046;-52
2020/12/22 06:50:07;;;;;;;0.32;0.32;;;10.10;91.80;;;;;;4976464;28;20019;-52
2020/12/22 06:52:35;;;;;;;2.00;1.02;;;10.10;91.90;;;;;;4972202;28;20428;-52
2020/12/22 06:55:05;;;;;;;0.32;0.32;;;10.10;91.80;;;;;;4974941;28;20031;-53
2020/12/22 06:57:50;;;;;;;1.00;0.68;;;10.20;91.90;;;;;;4970414;28;20512;-52
2020/12/22 07:00:29;;;;;;;0.70;0.60;;;10.20;91.90;;;;;;4969676;28;20031;-53
2020/12/22 07:03:16;;;;;;;0.88;0.82;;;10.20;92.10;;;;;;4969534;28;20038;-52
2020/12/22 07:05:46;;;;;;;0.80;0.80;;;10.10;91.80;;;;;;4968134;28;20081;-53
2020/12/22 07:08:13;;;;;;;0.70;0.70;;;10.20;92.00;;;;;;4968263;28;20103;-52
2020/12/22 07:10:48;;;;;;;0.60;0.60;;;10.10;91.70;;;;;;4965630;28;20031;-52
2020/12/22 07:13:17;;;;;;;0.88;0.45;;;10.10;91.90;;;;;;4964107;28;20038;-53
2020/12/22 07:15:48;;;;;;;2.03;1.02;;;10.20;91.90;;;;;;4962133;28;20033;-52
2020/12/22 07:18:20;;;;;;;0.70;0.70;;;10.20;92.00;;;;;;4969854;28;20042;-53
2020/12/22 07:20:46;;;;;;;0.70;0.70;;;10.20;92.00;;;;;;4966887;28;20026;-52
2020/12/22 07:23:14;;;;;;;1.23;0.88;;;10.20;92.00;;;;;;4968437;28;20181;-52
2020/12/22 07:25:41;;;;;;;0.60;0.60;;;10.20;91.80;;;;;;4967813;28;20016;-52
2020/12/22 07:28:09;;;;;;;0.85;0.82;;;10.20;92.10;;;;;;4966634;28;20041;-52
2020/12/22 07:30:35;;;;;;;0.75;0.75;;;10.20;92.00;;;;;;4965494;28;20031;-53
2020/12/22 07:33:03;;;;;;;0.77;0.77;;;10.20;91.80;;;;;;4967342;28;20126;-53
2020/12/22 07:35:29;;;;;;;1.40;1.02;;;10.20;92.00;;;;;;4965509;28;20027;-52
2020/12/22 07:38:05;;;;;;;0.88;0.88;;;10.20;91.90;;;;;;4966454;28;20045;-52
2020/12/22 07:40:32;;;;;;;2.78;1.20;;;10.20;92.10;;;;;;4963995;28;20023;-53
2020/12/22 07:43:08;;;;;;;0.90;0.90;;;10.20;91.80;;;;;;4967059;28;20027;-52
2020/12/22 07:45:34;;;;;;;1.23;1.13;;;10.20;91.90;;;;;;4959881;28;20086;-52
2020/12/22 07:48:07;;;;;;;1.85;0.93;;;10.20;92.00;;;;;;4964804;28;20035;-53
2020/12/22 07:50:34;;;;;;;0.68;0.68;;;10.20;92.00;;;;;;4964231;28;20050;-52
2020/12/22 07:53:00;;;;;;;0.40;0.40;;;10.20;91.90;;;;;;4966099;28;20480;-53
2020/12/22 07:55:35;;;;;;;0.52;0.52;;;10.20;92.00;;;;;;4959590;28;20404;-52
2020/12/22 07:58:01;;;;;;;0.55;0.55;;;10.20;91.70;;;;;;4964744;28;20531;-52
2020/12/22 08:00:27;;;;;;;2.20;1.40;;;10.20;91.90;;;;;;4966321;28;20054;-52
2020/12/22 08:02:53;;;;;;;0.90;0.50;;;10.20;92.20;;;;;;4966220;28;20058;-53
2020/12/22 08:05:18;;;;;;;0.35;0.35;;;10.20;92.00;;;;;;4962423;28;20445;-52
2020/12/22 08:07:52;;;;;;;0.47;0.47;;;10.20;91.90;;;;;;4966324;28;20109;-52
2020/12/22 08:10:18;;;;;;;1.08;0.98;;;10.20;92.00;;;;;;4960406;28;20074;-52
2020/12/22 08:12:50;;;;;;;0.73;0.73;;;10.20;92.00;;;;;;4969973;28;20109;-52
2020/12/22 08:15:15;;;;;;;0.40;0.40;;;10.20;92.00;;;;;;4963443;28;20552;-52
2020/12/22 08:17:45;;;;;;;0.60;0.60;;;10.20;91.90;;;;;;4966475;28;20083;-52
2020/12/22 08:20:13;;;;;;;0.70;0.70;;;10.20;92.10;;;;;;4962161;28;20078;-52
2020/12/22 08:22:42;;;;;;;1.52;1.00;;;10.20;92.00;;;;;;4963984;28;20038;-52
2020/12/22 08:25:09;;;;;;;3.25;1.15;;;10.30;92.00;;;;;;4966499;28;20051;-53
2020/12/22 08:27:36;;;;;;;1.70;1.10;;;10.20;92.00;;;;;;4961867;28;20114;-52
2020/12/22 08:30:02;;;;;;;1.80;1.10;;;10.30;92.10;;;;;;4969934;28;20381;-52
2020/12/22 08:32:28;;;;;;;0.30;0.30;;;10.20;92.10;;;;;;4971099;28;20027;-52
2020/12/22 08:34:54;;;;;;;4.90;0.57;;;10.30;92.00;;;;;;4972854;28;20112;-52
2020/12/22 08:37:27;;;;;;;0.80;0.80;;;10.30;92.40;;;;;;4973758;28;20055;-53
2020/12/22 08:39:54;;;;;;;0.98;0.70;;;10.30;92.00;;;;;;4970561;28;20038;-52
2020/12/22 08:42:21;;;;;;;0.60;0.60;;;10.30;92.10;;;;;;4975037;28;20027;-52
2020/12/22 08:44:51;;;;;;;1.02;0.93;;;10.30;92.00;;;;;;4975198;28;20023;-52
2020/12/22 08:47:18;;;;;;;1.08;0.90;;;10.30;92.10;;;;;;4975020;28;20019;-52
2020/12/22 08:49:44;;;;;;;0.70;0.60;;;10.30;92.00;;;;;;4966551;28;20031;-52
2020/12/22 08:52:17;;;;;;;0.35;0.35;;;10.30;92.20;;;;;;4973985;28;20022;-52
2020/12/22 08:54:47;;;;;;;1.02;1.00;;;10.30;91.90;;;;;;4970762;28;20027;-52
2020/12/22 08:57:18;;;;;;;0.68;0.68;;;10.30;92.20;;;;;;4959913;28;20026;-53
2020/12/22 08:59:45;;;;;;;0.45;0.45;;;10.30;92.10;;;;;;4966468;28;20349;-53
2020/12/22 09:02:29;;;;;;;1.10;0.82;;;10.30;92.10;;;;;;4972903;28;20031;-52
2020/12/22 09:04:55;;;;;;;1.08;1.02;;;10.30;92.00;;;;;;4965195;28;20023;-52
2020/12/22 09:07:25;;;;;;;1.15;0.80;;;10.30;92.20;;;;;;4968471;28;20615;-52
2020/12/22 09:09:51;;;;;;;3.28;0.80;;;10.30;91.90;;;;;;4973130;28;20047;-52
2020/12/22 09:12:17;;;;;;;1.10;1.00;;;10.30;92.20;;;;;;4969099;28;20034;-52
2020/12/22 09:14:44;;;;;;;0.50;0.50;;;10.30;92.20;;;;;;4969598;28;20047;-52
2020/12/22 09:17:12;;;;;;;2.88;1.00;;;10.30;92.00;;;;;;4968410;28;20054;-52
2020/12/22 09:19:44;;;;;;;0.95;0.90;;;10.40;92.30;;;;;;4967112;28;20031;-53
2020/12/22 09:22:11;;;;;;;1.55;0.95;;;10.30;92.20;;;;;;4969471;28;20032;-52
2020/12/22 09:24:37;;;;;;;0.30;0.30;;;10.30;92.20;;;;;;4969934;28;20110;-52
2020/12/22 09:27:10;;;;;;;0.80;0.80;;;10.30;92.00;;;;;;4970646;28;20034;-52
2020/12/22 09:29:39;;;;;;;0.77;0.77;;;10.30;92.20;;;;;;4975616;28;20399;-53
2020/12/22 09:32:09;;;;;;;0.90;0.52;;;10.30;91.90;;;;;;4969386;28;20031;-52
2020/12/22 09:34:36;;;;;;;0.60;0.60;;;10.30;92.10;;;;;;4969119;28;20030;-52
2020/12/22 09:37:04;;;;;;;0.50;0.50;;;10.30;92.30;;;;;;4963077;28;20372;-52
2020/12/22 09:39:32;;;;;;;2.13;1.00;;;10.40;92.10;;;;;;4970542;28;20081;-52
2020/12/22 09:41:57;;;;;;;0.73;0.73;;;10.40;92.30;;;;;;4965954;28;20039;-53
2020/12/22 09:44:24;;;;;;;1.00;0.77;;;10.40;92.30;;;;;;4958861;28;20037;-52
2020/12/22 09:46:52;;;;;;;0.50;0.50;;;10.40;92.30;;;;;;4970060;28;20076;-53
2020/12/22 09:49:18;;;;;;;2.25;0.93;;;10.40;92.30;;;;;;4970249;28;20027;-52
2020/12/22 09:51:44;;;;;;;0.50;0.50;;;10.40;92.20;;;;;;4968737;28;20086;-52
2020/12/22 09:54:11;;;;;;;0.70;0.70;;;10.40;92.50;;;;;;4959958;28;20035;-52
2020/12/22 09:56:37;;;;;;;0.70;0.63;;;10.40;92.30;;;;;;4970821;28;20110;-52
2020/12/22 09:59:03;;;;;;;3.35;1.00;;;10.40;92.30;;;;;;4969222;28;20122;-52
2020/12/22 10:01:28;;;;;;;1.00;0.60;;;10.40;92.40;;;;;;4975198;28;20361;-53
2020/12/22 10:03:54;;;;;;;0.65;0.65;;;10.40;92.30;;;;;;4975934;28;20087;-53
2020/12/22 10:06:22;;;;;;;0.40;0.40;;;10.40;92.30;;;;;;4969453;28;20077;-52
2020/12/22 10:08:48;;;;;;;1.27;0.70;;;10.40;92.20;;;;;;4961689;28;20031;-52
2020/12/22 10:11:18;;;;;;;0.60;0.60;;;10.40;92.40;;;;;;4966803;28;20504;-52
2020/12/22 10:13:44;;;;;;;0.88;0.82;;;10.40;92.30;;;;;;4976182;28;20034;-52
2020/12/22 10:16:18;;;;;;;0.80;0.80;;;10.50;92.50;;;;;;4976259;28;20057;-53
2020/12/22 10:18:44;;;;;;;0.88;0.88;;;10.40;92.80;;;;;;4971645;28;20034;-53
2020/12/22 10:21:14;;;;;;;0.80;0.80;;;10.30;92.80;;;;;;4965441;28;20146;-52
2020/12/22 10:23:43;;;;;;;0.80;0.73;;;10.40;93.10;;;;;;4968342;28;20027;-53
2020/12/22 10:26:11;;;;;;;1.95;0.70;;;10.40;93.70;;;;;;4967346;28;20108;-52
2020/12/22 10:28:38;;;;;;;0.70;0.70;;;10.40;93.60;;;;;;4971899;28;20027;-52
2020/12/22 10:31:04;;;;;;;0.63;0.63;;;10.40;93.60;;;;;;4964174;28;20046;-52
2020/12/22 10:33:30;;;;;;;0.63;0.63;;;10.40;93.80;;;;;;4962228;28;20031;-53
2020/12/22 10:35:56;;;;;;;3.75;0.80;;;10.40;93.60;;;;;;4965776;28;20042;-52
2020/12/22 10:38:22;;;;;;;1.25;1.00;;;10.40;93.80;;;;;;4964571;28;20405;-52
2020/12/22 10:40:49;;;;;;;1.00;0.93;;;10.40;93.90;;;;;;4959668;28;20043;-53
2020/12/22 10:43:15;;;;;;;0.40;0.40;;;10.40;94.00;;;;;;4966855;28;20298;-52
2020/12/22 10:45:41;;;;;;;3.22;0.70;;;10.30;94.10;;;;;;4960729;28;20114;-52
2020/12/22 10:48:07;;;;;;;1.08;0.68;;;10.30;94.00;;;;;;4959976;28;20058;-52
2020/12/22 10:50:34;;;;;;;1.48;1.00;;;10.30;94.20;;;;;;4970066;28;20041;-53
2020/12/22 10:53:00;;;;;;;2.13;1.02;;;10.30;94.30;;;;;;4969290;28;20043;-53
2020/12/22 10:55:26;;;;;;;1.33;0.90;;;10.40;94.40;;;;;;4970840;28;20110;-52
2020/12/22 10:57:51;;;;;;;1.02;0.77;;;10.40;94.10;;;;;;4965233;28;20032;-52
2020/12/22 11:00:17;;;;;;;0.77;0.70;;;10.50;93.70;;;;;;4961824;28;20042;-52
2020/12/22 11:02:49;;;;;;;0.60;0.60;;;10.50;93.20;;;;;;4961825;28;20756;-53
2020/12/22 11:05:14;;;;;;;3.88;0.70;;;10.50;93.30;;;;;;4961619;28;20111;-53
2020/12/22 11:10:08;;;;;;;0.57;0.57;;;10.60;93.30;;;;;;4967926;28;20516;-53
2020/12/22 11:12:34;;;;;;;1.25;0.70;;;10.60;93.40;;;;;;4967259;28;20030;-53
2020/12/22 11:15:00;;;;;;;0.50;0.50;;;10.60;93.60;;;;;;4967823;28;20061;-52
2020/12/22 11:17:26;;;;;;;0.98;0.77;;;10.60;93.50;;;;;;4964934;28;20022;-53
2020/12/22 11:19:52;;;;;;;1.40;0.70;;;10.60;93.20;;;;;;4971354;28;20027;-53
2020/12/22 11:22:18;;;;;;;0.60;0.60;;;10.60;93.50;;;;;;4960442;28;20023;-53
2020/12/22 11:24:44;;;;;;;0.75;0.57;;;10.60;93.00;;;;;;4966337;28;20034;-52
2020/12/22 11:27:10;;;;;;;0.65;0.65;;;10.60;93.30;;;;;;4975726;28;20018;-52
2020/12/22 11:29:35;;;;;;;0.52;0.50;;;10.70;93.30;;;;;;4961868;28;20031;-53
2020/12/22 11:32:01;;;;;;;0.40;0.40;;;10.70;93.30;;;;;;4955291;28;20043;-53
2020/12/22 11:34:26;;;;;;;2.05;0.60;;;10.60;93.00;;;;;;4966070;28;20368;-53
2020/12/22 11:36:53;;;;;;;0.60;0.60;;;10.60;93.10;;;;;;4969313;28;20173;-53
2020/12/22 11:39:20;;;;;;;0.98;0.73;;;10.70;93.00;;;;;;4971284;28;20109;-53
2020/12/22 11:41:46;;;;;;;0.75;0.75;;;10.70;93.30;;;;;;4971610;28;20098;-52
2020/12/22 11:44:12;;;;;;;0.85;0.55;;;10.70;93.10;;;;;;4966661;28;20067;-53
2020/12/22 11:46:37;;;;;;;0.43;0.43;;;10.60;93.00;;;;;;4972192;28;20027;-53
2020/12/22 11:49:07;;;;;;;0.95;0.77;;;10.70;93.10;;;;;;4968426;28;20034;-52
2020/12/22 11:51:32;;;;;;;0.47;0.47;;;10.70;93.30;;;;;;4962563;28;20027;-52
2020/12/22 11:53:58;;;;;;;0.60;0.60;;;10.70;93.10;;;;;;4965849;28;20147;-53
2020/12/22 11:56:24;;;;;;;0.93;0.75;;;10.70;93.50;;;;;;4969515;28;20476;-53
2020/12/22 11:58:49;;;;;;;0.60;0.60;;;10.70;93.00;;;;;;4963619;28;20073;-53
2020/12/22 12:01:15;;;;;;;0.20;0.20;;;10.70;93.30;;;;;;4959796;28;20019;-53
2020/12/22 12:03:42;;;;;;;0.50;0.50;;;10.70;93.10;;;;;;4974026;28;20070;-53
2020/12/22 12:06:10;;;;;;;0.40;0.40;;;10.70;93.00;;;;;;4970306;28;20031;-53
2020/12/22 12:08:37;;;;;;;0.60;0.60;;;10.70;93.10;;;;;;4968522;28;20027;-53
2020/12/22 12:11:03;;;;;;;2.20;0.57;;;10.70;93.20;;;;;;4963273;28;20034;-53
2020/12/22 12:13:29;;;;;;;0.70;0.70;;;10.70;93.30;;;;;;4964805;28;20114;-53
2020/12/22 12:15:54;;;;;;;0.35;0.35;;;10.70;93.20;;;;;;4971237;28;20097;-53
2020/12/22 12:18:20;;;;;;;0.50;0.50;;;10.70;92.90;;;;;;4958950;28;20043;-53
2020/12/22 12:20:46;;;;;;;0.50;0.50;;;10.70;93.10;;;;;;4970259;28;20041;-53
2020/12/22 12:23:11;;;;;;;0.60;0.60;;;10.70;93.00;;;;;;4970028;28;20471;-52
2020/12/22 12:25:37;;;;;;;0.73;0.70;;;10.80;93.50;;;;;;4963039;28;20078;-53
2020/12/22 12:28:03;;;;;;;1.85;0.70;;;10.70;92.90;;;;;;4956589;28;20047;-53
2020/12/22 12:30:28;;;;;;;0.82;0.82;;;10.70;92.80;;;;;;4966544;28;20078;-53
2020/12/22 12:32:54;;;;;;;1.27;0.70;;;10.80;92.70;;;;;;4966558;28;20074;-53
2020/12/22 12:35:19;;;;;;;0.52;0.47;;;10.80;92.90;;;;;;4969479;28;20414;-52
2020/12/22 12:37:45;;;;;;;2.85;0.90;;;10.80;92.90;;;;;;4967818;28;20118;-52
2020/12/22 12:40:11;;;;;;;0.75;0.75;;;10.80;93.00;;;;;;4973315;28;20049;-52
2020/12/22 12:42:37;;;;;;;0.88;0.60;;;10.80;92.70;;;;;;4969138;28;20053;-53
2020/12/22 12:45:02;;;;;;;0.70;0.70;;;10.80;93.20;;;;;;4961302;28;20027;-53
2020/12/22 12:47:28;;;;;;;1.38;1.13;;;10.80;92.70;;;;;;4968248;28;20169;-52
2020/12/22 12:49:54;;;;;;;0.98;0.50;;;10.80;93.10;;;;;;4974715;28;20035;-53
